createdAt,value
2023-02-06T00:00:52.400Z,107.30
2023-02-06T00:03:43.507Z,34.00
2023-02-06T00:08:45.223Z,20.60
2023-02-06T00:13:49.326Z,20.90
2023-02-06T00:16:23.628Z,19.40
2023-02-06T00:18:56.745Z,18.10
2023-02-06T00:21:30.133Z,18.10
2023-02-06T00:24:03.363Z,20.80
2023-02-06T00:26:35.019Z,20.20
2023-02-06T00:31:36.878Z,19.10
2023-02-06T00:34:11.282Z,20.90
2023-02-06T00:36:44.600Z,20.70
2023-02-06T00:41:46.501Z,22.70
2023-02-06T00:46:48.254Z,22.80
2023-02-06T00:51:50.040Z,21.80
2023-02-06T00:56:52.504Z,23.60
2023-02-06T00:59:24.143Z,20.80
2023-02-06T01:04:25.961Z,21.10
2023-02-06T01:09:27.709Z,21.80
2023-02-06T01:12:01.424Z,22.40
2023-02-06T01:17:03.220Z,18.60
2023-02-06T01:22:04.979Z,19.80
2023-02-06T01:27:06.854Z,17.80
2023-02-06T01:29:38.923Z,17.50
2023-02-06T01:32:10.574Z,18.10
2023-02-06T01:34:42.836Z,19.00
2023-02-06T01:37:14.513Z,18.80
2023-02-06T01:42:16.486Z,19.40
2023-02-06T01:47:18.951Z,21.30
2023-02-06T01:49:52.348Z,17.20
2023-02-06T01:52:30.338Z,19.30
2023-02-06T01:55:05.642Z,15.80
2023-02-06T01:57:39.199Z,20.20
2023-02-06T02:00:13.298Z,16.90
2023-02-06T02:02:48.291Z,19.70
2023-02-06T02:05:21.162Z,17.40
2023-02-06T02:08:01.015Z,16.40
2023-02-06T02:10:33.379Z,17.00
2023-02-06T02:13:05.031Z,16.30
2023-02-06T02:18:31.314Z,16.70
2023-02-06T02:21:25.728Z,16.40
2023-02-06T02:24:06.756Z,19.40
2023-02-06T02:27:14.456Z,18.50
2023-02-06T02:30:11.767Z,17.10
2023-02-06T02:33:12.754Z,17.20
2023-02-06T02:35:52.476Z,16.60
2023-02-06T02:38:39.635Z,23.70
2023-02-06T02:41:17.874Z,17.80
2023-02-06T02:43:58.086Z,15.20
2023-02-06T02:46:33.635Z,15.70
2023-02-06T02:49:08.288Z,18.40
2023-02-06T02:51:42.109Z,14.00
2023-02-06T02:54:13.791Z,14.50
2023-02-06T02:56:45.630Z,15.10
2023-02-06T02:59:23.891Z,16.50
2023-02-06T03:02:02.115Z,14.80
2023-02-06T03:04:39.001Z,16.60
2023-02-06T03:07:21.105Z,15.10
2023-02-06T03:10:04.165Z,14.10
2023-02-06T03:12:45.431Z,15.30
2023-02-06T03:15:27.046Z,16.40
2023-02-06T03:20:34.046Z,19.60
2023-02-06T03:23:07.822Z,17.80
2023-02-06T03:25:42.858Z,16.70
2023-02-06T03:28:21.277Z,22.20
2023-02-06T03:30:57.793Z,25.50
2023-02-06T03:33:34.690Z,27.10
2023-02-06T03:36:08.457Z,23.40
2023-02-06T03:38:40.800Z,25.50
2023-02-06T03:41:13.530Z,22.30
2023-02-06T03:43:48.147Z,23.40
2023-02-06T03:46:20.838Z,30.30
2023-02-06T03:48:58.339Z,29.00
2023-02-06T03:51:35.023Z,26.80
2023-02-06T03:54:08.105Z,171.60
2023-02-06T03:56:44.682Z,45.30
2023-02-06T03:59:16.737Z,54.90
2023-02-06T04:01:52.586Z,49.90
2023-02-06T04:04:29.151Z,43.40
2023-02-06T04:07:03.819Z,42.50
2023-02-06T04:09:35.430Z,33.70
2023-02-06T04:14:37.738Z,28.50
2023-02-06T04:17:09.993Z,33.00
2023-02-06T04:19:42.574Z,29.70
2023-02-06T04:22:16.520Z,31.50
2023-02-06T04:24:48.149Z,34.30
2023-02-06T04:29:50.464Z,30.70
2023-02-06T04:34:52.232Z,37.70
2023-02-06T04:37:24.016Z,40.00
2023-02-06T04:42:25.817Z,36.00
2023-02-06T04:47:27.525Z,40.20
2023-02-06T04:52:29.280Z,46.50
2023-02-06T04:57:31.074Z,59.10
2023-02-06T05:02:37.436Z,50.60
2023-02-06T05:05:10.831Z,50.00
2023-02-06T05:07:42.462Z,52.80
2023-02-06T05:10:14.772Z,65.20
2023-02-06T05:12:47.076Z,73.40
2023-02-06T05:15:19.009Z,70.30
2023-02-06T05:17:50.657Z,72.40
2023-02-06T05:22:52.788Z,73.30
2023-02-06T05:27:57.320Z,78.70
2023-02-06T05:30:28.977Z,81.20
2023-02-06T05:35:31.698Z,57.40
2023-02-06T05:38:03.345Z,59.50
2023-02-06T05:43:05.317Z,49.50
2023-02-06T05:45:37.412Z,50.90
2023-02-06T05:48:09.280Z,56.60
2023-02-06T05:50:42.487Z,53.20
2023-02-06T05:53:19.866Z,47.00
2023-02-06T05:55:51.555Z,44.00
2023-02-06T05:58:23.233Z,47.70
2023-02-06T06:03:25.418Z,50.40
2023-02-06T06:05:57.237Z,51.40
2023-02-06T06:08:28.993Z,53.40
2023-02-06T06:11:02.074Z,49.40
2023-02-06T06:13:34.626Z,49.70
2023-02-06T06:16:06.762Z,51.60
2023-02-06T06:18:38.435Z,49.90
2023-02-06T06:23:40.324Z,55.00
2023-02-06T06:28:42.233Z,46.30
2023-02-06T06:31:15.052Z,49.00
2023-02-06T06:33:47.075Z,45.10
2023-02-06T06:36:18.815Z,50.30
2023-02-06T06:38:50.489Z,51.10
2023-02-06T06:43:52.213Z,46.90
2023-02-06T06:48:53.960Z,41.20
2023-02-06T06:53:55.768Z,43.80
2023-02-06T06:58:58.556Z,43.20
2023-02-06T07:04:01.970Z,42.60
2023-02-06T07:06:33.660Z,44.80
2023-02-06T07:09:05.327Z,39.70
2023-02-06T07:14:07.160Z,42.30
2023-02-06T07:16:38.826Z,41.70
2023-02-06T07:19:10.677Z,41.00
2023-02-06T07:21:42.305Z,40.70
2023-02-06T07:26:44.653Z,40.70
2023-02-06T07:29:16.393Z,44.90
2023-02-06T07:34:18.458Z,52.50
2023-02-06T07:39:20.165Z,44.20
2023-02-06T07:44:23.873Z,38.20
2023-02-06T07:49:26.015Z,50.70
2023-02-06T07:51:57.636Z,48.20
2023-02-06T07:56:59.376Z,50.80
2023-02-06T08:02:01.413Z,54.00
2023-02-06T08:04:35.555Z,48.60
2023-02-06T08:07:09.827Z,52.20
2023-02-06T08:09:41.487Z,53.80
2023-02-06T08:14:45.831Z,53.30
2023-02-06T08:17:19.508Z,50.80
2023-02-06T08:19:51.491Z,54.10
2023-02-06T08:22:23.187Z,57.10
2023-02-06T08:27:24.898Z,64.60
2023-02-06T08:32:32.989Z,79.20
2023-02-06T08:35:04.643Z,175.50
2023-02-06T08:40:08.086Z,109.00
2023-02-06T08:42:39.772Z,108.00
2023-02-06T08:45:12.236Z,80.60
2023-02-06T08:47:43.837Z,83.30
2023-02-06T08:52:45.612Z,71.90
2023-02-06T08:57:47.421Z,110.20
2023-02-06T09:02:52.466Z,58.80
2023-02-06T09:05:24.266Z,58.40
2023-02-06T09:10:27.990Z,37.90
2023-02-06T09:12:59.952Z,45.30
2023-02-06T09:18:01.748Z,33.80
2023-02-06T09:20:33.474Z,28.10
2023-02-06T09:25:35.606Z,33.90
2023-02-06T09:28:08.046Z,29.30
2023-02-06T09:30:39.843Z,48.70
2023-02-06T09:33:11.480Z,40.90
2023-02-06T09:38:13.537Z,42.60
2023-02-06T09:40:45.264Z,44.40
2023-02-06T09:43:17.474Z,29.20
2023-02-06T09:45:54.885Z,18.90
2023-02-06T09:48:30.294Z,16.90
2023-02-06T09:51:09.217Z,15.70
2023-02-06T09:53:52.582Z,14.30
2023-02-06T09:56:33.690Z,11.60
2023-02-06T09:59:12.902Z,13.70
2023-02-06T10:01:53.982Z,12.40
2023-02-06T10:04:41.246Z,12.60
2023-02-06T10:07:29.532Z,12.30
2023-02-06T10:10:09.961Z,13.20
2023-02-06T10:12:45.860Z,15.30
2023-02-06T10:15:24.340Z,15.60
2023-02-06T10:18:04.900Z,16.80
2023-02-06T10:20:39.910Z,14.50
2023-02-06T10:23:19.429Z,15.90
2023-02-06T10:26:01.053Z,16.60
2023-02-06T10:28:35.246Z,16.10
2023-02-06T10:31:19.186Z,16.30
2023-02-06T10:33:59.980Z,18.40
2023-02-06T10:36:47.498Z,14.20
2023-02-06T10:39:34.233Z,16.50
2023-02-06T10:42:16.277Z,20.10
2023-02-06T10:44:58.122Z,18.60
2023-02-06T10:47:40.953Z,14.80
2023-02-06T10:50:24.428Z,15.70
2023-02-06T10:52:58.428Z,15.50
2023-02-06T10:55:37.174Z,16.50
2023-02-06T10:58:23.513Z,15.90
2023-02-06T11:00:56.989Z,15.90
2023-02-06T11:03:32.138Z,17.00
2023-02-06T11:06:04.397Z,19.40
2023-02-06T11:08:40.252Z,19.00
2023-02-06T11:11:22.680Z,20.00
2023-02-06T11:13:58.321Z,19.70
2023-02-06T11:16:31.361Z,17.30
2023-02-06T11:19:15.456Z,16.60
2023-02-06T11:21:56.485Z,20.30
2023-02-06T11:24:28.210Z,14.00
2023-02-06T11:29:35.806Z,25.10
2023-02-06T11:32:09.275Z,19.80
2023-02-06T11:34:52.371Z,15.00
2023-02-06T11:37:37.698Z,16.50
2023-02-06T11:40:25.569Z,17.20
2023-02-06T11:43:16.906Z,18.10
2023-02-06T11:45:49.502Z,15.90
2023-02-06T11:48:39.819Z,14.60
2023-02-06T11:51:13.781Z,16.60
2023-02-06T11:53:59.816Z,16.30
2023-02-06T11:56:32.656Z,17.60
2023-02-06T11:59:17.743Z,18.90
2023-02-06T12:01:50.048Z,20.80
2023-02-06T12:04:27.008Z,15.60
2023-02-06T12:07:02.726Z,16.60
2023-02-06T12:09:34.780Z,18.00
2023-02-06T12:12:12.798Z,17.20
2023-02-06T12:14:49.114Z,17.10
2023-02-06T12:17:28.040Z,17.90
2023-02-06T12:20:05.770Z,18.30
2023-02-06T12:22:41.346Z,15.70
2023-02-06T12:25:28.841Z,17.10
2023-02-06T12:28:10.647Z,16.30
2023-02-06T12:33:18.552Z,17.40
2023-02-06T12:35:54.840Z,18.80
2023-02-06T12:38:44.047Z,17.80
2023-02-06T12:41:28.274Z,22.10
2023-02-06T12:44:05.585Z,17.80
2023-02-06T12:46:37.838Z,19.00
2023-02-06T12:49:16.491Z,19.40
2023-02-06T12:51:54.666Z,21.90
2023-02-06T12:54:30.616Z,19.90
2023-02-06T12:57:06.010Z,21.50
2023-02-06T12:59:58.314Z,18.80
2023-02-06T13:02:53.215Z,20.40
2023-02-06T13:05:30.930Z,22.70
2023-02-06T13:08:08.073Z,17.50
2023-02-06T13:10:40.920Z,24.20
2023-02-06T13:13:28.921Z,28.30
2023-02-06T13:16:01.494Z,21.60
2023-02-06T13:18:53.544Z,20.50
2023-02-06T13:21:29.117Z,27.10
2023-02-06T13:24:17.370Z,17.80
2023-02-06T13:27:12.308Z,18.40
2023-02-06T13:29:45.388Z,20.60
2023-02-06T13:32:45.386Z,24.30
2023-02-06T13:35:24.576Z,22.10
2023-02-06T13:38:25.651Z,23.20
2023-02-06T13:41:42.186Z,22.90
2023-02-06T13:44:20.177Z,24.00
2023-02-06T13:47:34.016Z,20.90
2023-02-06T13:50:31.765Z,19.50
2023-02-06T13:53:27.182Z,18.40
2023-02-06T13:56:15.004Z,18.50
2023-02-06T13:58:52.392Z,20.20
2023-02-06T14:01:26.890Z,18.00
2023-02-06T14:03:59.783Z,16.90
2023-02-06T14:06:52.505Z,17.00
2023-02-06T14:09:54.929Z,17.00
2023-02-06T14:12:39.898Z,16.90
2023-02-06T14:15:25.163Z,19.10
2023-02-06T14:18:33.580Z,20.00
2023-02-06T14:21:15.729Z,18.70
2023-02-06T14:24:07.261Z,19.80
2023-02-06T14:26:46.402Z,22.70
2023-02-06T14:29:28.136Z,21.30
2023-02-06T14:32:20.621Z,20.50
2023-02-06T14:35:06.871Z,17.40
2023-02-06T14:37:54.866Z,19.70
2023-02-06T14:40:28.887Z,21.30
2023-02-06T14:43:03.616Z,22.00
2023-02-06T14:45:42.125Z,21.90
2023-02-06T14:48:22.228Z,20.40
2023-02-06T14:50:57.181Z,23.20
2023-02-06T14:53:32.100Z,19.80
2023-02-06T14:56:15.864Z,20.40
2023-02-06T14:58:48.578Z,20.20
2023-02-06T15:01:27.248Z,19.00
2023-02-06T15:04:13.595Z,20.10
2023-02-06T15:06:51.528Z,21.00
2023-02-06T15:09:29.192Z,20.70
2023-02-06T15:12:04.409Z,18.80
2023-02-06T15:14:37.494Z,18.70
2023-02-06T15:17:19.166Z,19.40
2023-02-06T15:19:50.895Z,18.30
2023-02-06T15:25:05.855Z,21.20
2023-02-06T15:27:39.287Z,20.40
2023-02-06T15:30:25.123Z,22.60
2023-02-06T15:32:57.454Z,22.70
2023-02-06T15:35:49.437Z,23.30
2023-02-06T15:38:32.873Z,21.00
2023-02-06T15:41:22.303Z,21.50
2023-02-06T15:44:01.620Z,21.40
2023-02-06T15:46:34.001Z,22.90
2023-02-06T15:49:06.931Z,20.40
2023-02-06T15:51:51.759Z,20.30
2023-02-06T15:54:25.970Z,21.50
2023-02-06T15:57:04.695Z,21.10
2023-02-06T15:59:41.732Z,21.10
2023-02-06T16:02:24.374Z,22.50
2023-02-06T16:04:56.824Z,20.90
2023-02-06T16:07:31.992Z,20.20
2023-02-06T16:10:11.495Z,18.70
2023-02-06T16:12:45.569Z,19.50
2023-02-06T16:15:31.241Z,17.40
2023-02-06T16:18:19.228Z,20.60
2023-02-06T16:20:51.232Z,21.50
2023-02-06T16:23:29.112Z,19.70
2023-02-06T16:26:07.346Z,21.30
2023-02-06T16:28:50.351Z,21.10
2023-02-06T16:31:22.204Z,19.30
2023-02-06T16:33:55.577Z,20.30
2023-02-06T16:36:27.377Z,21.40
2023-02-06T16:39:04.195Z,21.40
2023-02-06T16:41:38.171Z,19.30
2023-02-06T16:44:17.090Z,21.80
2023-02-06T16:46:48.816Z,17.90
2023-02-06T16:49:23.526Z,18.90
2023-02-06T16:51:56.322Z,19.30
2023-02-06T16:54:31.029Z,19.50
2023-02-06T16:57:12.266Z,18.60
2023-02-06T16:59:44.069Z,20.60
2023-02-06T17:02:16.164Z,22.00
2023-02-06T17:04:48.184Z,24.70
2023-02-06T17:07:22.757Z,21.30
2023-02-06T17:09:57.204Z,22.60
2023-02-06T17:12:29.293Z,24.60
2023-02-06T17:15:01.132Z,23.40
2023-02-06T17:17:33.710Z,22.50
2023-02-06T17:20:08.278Z,20.30
2023-02-06T17:22:40.181Z,22.70
2023-02-06T17:25:12.097Z,20.50
2023-02-06T17:27:44.658Z,21.80
2023-02-06T17:30:20.629Z,21.00
2023-02-06T17:32:52.339Z,23.30
2023-02-06T17:37:54.487Z,23.80
2023-02-06T17:42:59.008Z,29.30
2023-02-06T17:45:31.073Z,27.20
2023-02-06T17:48:02.972Z,24.60
2023-02-06T17:50:36.901Z,28.00
2023-02-06T17:53:10.500Z,29.10
2023-02-06T17:55:42.561Z,23.30
2023-02-06T17:58:14.372Z,25.90
2023-02-06T18:00:49.696Z,26.60
2023-02-06T18:03:21.388Z,33.80
2023-02-06T18:06:00.283Z,34.80
2023-02-06T18:08:32.285Z,30.30
2023-02-06T18:11:11.734Z,31.20
2023-02-06T18:13:43.932Z,31.30
2023-02-06T18:16:19.913Z,43.60
2023-02-06T18:18:52.005Z,34.80
2023-02-06T18:21:25.274Z,33.70
2023-02-06T18:23:57.193Z,32.80
2023-02-06T18:26:28.936Z,34.80
2023-02-06T18:31:33.936Z,39.50
2023-02-06T18:34:08.879Z,40.90
2023-02-06T18:36:40.608Z,40.00
2023-02-06T18:42:01.089Z,36.10
2023-02-06T18:44:34.836Z,38.70
2023-02-06T18:47:06.874Z,42.90
2023-02-06T18:49:39.072Z,38.20
2023-02-06T18:52:11.088Z,35.10
2023-02-06T18:54:43.173Z,34.40
2023-02-06T18:57:15.659Z,47.70
2023-02-06T18:59:47.321Z,32.00
2023-02-06T19:04:49.756Z,33.10
2023-02-06T19:07:21.506Z,34.30
2023-02-06T19:09:57.656Z,33.50
2023-02-06T19:12:30.441Z,33.00
2023-02-06T19:15:02.149Z,32.30
2023-02-06T19:17:34.225Z,33.40
2023-02-06T19:20:08.448Z,34.20
2023-02-06T19:22:40.874Z,34.80
2023-02-06T19:25:14.727Z,36.80
2023-02-06T19:27:46.534Z,44.40
2023-02-06T19:32:48.723Z,59.50
2023-02-06T19:35:21.063Z,39.30
2023-02-06T19:37:52.794Z,42.50
2023-02-06T19:40:24.835Z,40.60
2023-02-06T19:42:56.737Z,40.00
2023-02-06T19:45:29.066Z,39.20
2023-02-06T19:48:00.845Z,39.00
2023-02-06T19:50:33.329Z,36.90
2023-02-06T19:53:05.218Z,38.80
2023-02-06T19:55:37.020Z,40.80
2023-02-06T20:00:39.463Z,40.70
2023-02-06T20:03:11.602Z,49.60
2023-02-06T20:05:44.599Z,44.40
2023-02-06T20:08:16.343Z,37.50
2023-02-06T20:10:48.049Z,40.60
2023-02-06T20:13:19.704Z,38.10
2023-02-06T20:18:22.137Z,43.40
2023-02-06T20:20:53.975Z,42.90
2023-02-06T20:25:56.258Z,42.10
2023-02-06T20:28:28.073Z,45.70
2023-02-06T20:30:59.826Z,44.10
2023-02-06T20:33:32.880Z,44.00
2023-02-06T20:36:09.739Z,49.70
2023-02-06T20:38:42.088Z,45.70
2023-02-06T20:41:13.797Z,45.10
2023-02-06T20:43:49.569Z,48.60
2023-02-06T20:46:23.773Z,46.80
2023-02-06T20:48:58.819Z,48.10
2023-02-06T20:51:31.453Z,40.50
2023-02-06T20:54:03.772Z,45.70
2023-02-06T20:56:36.331Z,47.10
2023-02-06T20:59:09.200Z,44.80
2023-02-06T21:01:40.965Z,42.30
2023-02-06T21:04:14.742Z,39.70
2023-02-06T21:06:48.051Z,44.80
2023-02-06T21:09:20.706Z,53.90
2023-02-06T21:11:52.429Z,54.40
2023-02-06T21:14:25.520Z,49.40
2023-02-06T21:16:57.866Z,51.50
2023-02-06T21:19:29.531Z,52.80
2023-02-06T21:22:01.819Z,57.80
2023-02-06T21:24:33.550Z,59.20
2023-02-06T21:29:35.362Z,64.10
2023-02-06T21:32:13.661Z,61.80
2023-02-06T21:34:45.972Z,54.10
2023-02-06T21:37:18.034Z,52.40
2023-02-06T21:39:49.856Z,57.30
2023-02-06T21:42:26.107Z,51.00
2023-02-06T21:44:57.887Z,58.20
2023-02-06T21:47:29.676Z,87.10
2023-02-06T21:50:01.452Z,82.00
2023-02-06T21:52:35.370Z,85.30
2023-02-06T21:55:07.757Z,91.40
2023-02-06T21:57:39.527Z,64.80
2023-02-06T22:00:15.322Z,63.10
2023-02-06T22:02:49.102Z,66.90
2023-02-06T22:05:25.035Z,83.60
2023-02-06T22:08:00.148Z,90.90
2023-02-06T22:10:31.942Z,80.30
2023-02-06T22:13:06.881Z,101.00
2023-02-06T22:15:38.941Z,103.00
2023-02-06T22:18:10.779Z,106.90
2023-02-06T22:23:12.590Z,111.10
2023-02-06T22:25:49.779Z,115.40
2023-02-06T22:28:21.873Z,104.60
2023-02-06T22:30:53.637Z,130.00
2023-02-06T22:33:25.384Z,125.60
2023-02-06T22:35:57.024Z,121.90
2023-02-06T22:38:28.661Z,140.70
2023-02-06T22:41:04.692Z,139.30
2023-02-06T22:43:38.488Z,91.40
2023-02-06T22:46:10.958Z,115.40
2023-02-06T22:48:42.796Z,118.90
2023-02-06T22:51:14.590Z,84.30
2023-02-06T22:53:46.613Z,126.60
2023-02-06T22:56:31.207Z,131.10
2023-02-06T22:59:06.093Z,111.70
2023-02-06T23:01:40.384Z,138.80
2023-02-06T23:04:23.466Z,160.50
2023-02-06T23:06:55.882Z,169.20
2023-02-06T23:09:29.646Z,175.60
2023-02-06T23:12:02.102Z,163.40
2023-02-06T23:14:34.449Z,222.50
2023-02-06T23:17:06.098Z,221.10
2023-02-06T23:19:37.721Z,207.10
2023-02-06T23:22:10.761Z,199.20
2023-02-06T23:24:42.381Z,213.60
2023-02-06T23:29:44.068Z,168.50
2023-02-06T23:32:15.740Z,218.30
2023-02-06T23:34:47.527Z,210.10
2023-02-06T23:37:19.147Z,197.00
2023-02-06T23:39:50.836Z,194.70
2023-02-06T23:42:22.497Z,220.80
2023-02-06T23:44:54.848Z,197.10
2023-02-06T23:47:26.627Z,202.90
2023-02-06T23:49:58.289Z,218.90
2023-02-06T23:52:29.940Z,208.70
2023-02-06T23:55:01.648Z,199.30
2023-02-06T23:57:35.149Z,189.90
